Terminal Aerodrome Forecast
Issued by NWS Charleston, WV

Current Version | Previous Version | Graphics & Text | Print | Product List | Glossary On
Versions: 1 2 3 4 5 6 7 8 9 10 11 12 13 14 15 16 17 18 19 20 21 22 23 24 25 26 27 28 29 30 31 32 33 34 35 36 37 38
117
FTUS41 KRLX 250908 AAB
TAFHTS
TAF AMD
KHTS 250908Z 2509/2606 22010KT 5SM +SHRA OVC035
     FM251000 20011G20KT 5SM SHRA BR OVC013
     FM251300 24011G20KT P6SM OVC020
     FM251500 26009G20KT P6SM BKN035
     FM251900 26008KT P6SM SCT250=

USA.gov is the U.S. government's official web portal to all federal, state and local government web resources and services.